Time;durP1;ratioP1;P1;durP2;ratioP2;P2;SDS_P1;SDS_P2;PMS_P1;PMS_P2;Temp;Humidity;BMP_temperature;BMP_pressure;BME280_temperature;BME280_humidity;BME280_pressure;Samples;Min_cycle;Max_cycle;Signal;HPM_P1;HPM_P2
2022/09/15 00:00:00;;;;;;;;;15.75;13.00;;;;;14.73;76.39;98897.63;5034567;28;8821;-60
2022/09/15 00:02:28;;;;;;;;;15.00;12.25;;;;;14.72;76.82;98897.84;5023708;28;8824;-60
2022/09/15 00:04:55;;;;;;;;;13.75;11.00;;;;;14.69;76.97;98898.16;5033907;28;8841;-60
2022/09/15 00:07:23;;;;;;;;;18.00;15.75;;;;;14.63;76.65;98905.06;5034217;28;8821;-59
2022/09/15 00:09:51;;;;;;;;;22.25;18.00;;;;;14.61;76.84;98904.41;5034390;28;8829;-62
2022/09/15 00:12:19;;;;;;;;;16.00;15.00;;;;;14.58;77.03;98898.56;5033829;28;8912;-60
2022/09/15 00:14:46;;;;;;;;;10.50;9.25;;;;;14.55;77.34;98901.56;5034516;28;8841;-61
2022/09/15 00:17:14;;;;;;;;;15.25;13.50;;;;;14.52;76.98;98896.56;5034493;28;8829;-60
2022/09/15 00:19:41;;;;;;;;;19.50;17.50;;;;;14.48;77.47;98897.91;5034043;28;8817;-60
2022/09/15 00:22:09;;;;;;;;;16.75;13.00;;;;;14.42;77.74;98901.28;5034284;28;8833;-62
2022/09/15 00:24:37;;;;;;;;;18.50;15.00;;;;;14.38;78.01;98902.63;5034483;28;8837;-60
2022/09/15 00:27:04;;;;;;;;;14.50;14.50;;;;;14.32;77.93;98895.25;5034191;28;8829;-59
2022/09/15 00:29:32;;;;;;;;;18.75;14.00;;;;;14.27;77.52;98889.59;5033905;28;8813;-59
2022/09/15 00:31:59;;;;;;;;;6.50;5.00;;;;;14.23;77.77;98891.78;5034371;28;8824;-60
2022/09/15 00:34:27;;;;;;;;;18.00;15.25;;;;;14.18;77.70;98890.63;5033849;28;8825;-59
2022/09/15 00:36:55;;;;;;;;;12.00;11.00;;;;;14.14;78.34;98890.09;5033556;28;8821;-60
2022/09/15 00:39:23;;;;;;;;;11.00;8.25;;;;;14.10;78.37;98894.09;5033051;28;8837;-60
2022/09/15 00:41:50;;;;;;;;;15.00;13.50;;;;;14.07;78.23;98896.28;5033608;28;8852;-60
2022/09/15 00:44:18;;;;;;;;;15.00;12.25;;;;;14.02;78.57;98895.94;5033078;28;8813;-60
2022/09/15 00:46:46;;;;;;;;;13.75;11.25;;;;;13.98;78.52;98897.31;5033864;28;8809;-62
2022/09/15 00:49:34;;;;;;;;;9.50;8.25;;;;;13.94;78.42;98895.97;5032577;28;8938;-60
2022/09/15 00:52:01;;;;;;;;;8.75;7.50;;;;;13.91;78.33;98899.84;5033302;28;8947;-61
2022/09/15 00:54:29;;;;;;;;;17.00;13.00;;;;;13.87;78.03;98894.97;5013026;28;8835;-60
2022/09/15 00:57:01;;;;;;;;;16.50;12.50;;;;;13.83;78.71;98899.81;5021722;28;8821;-59
2022/09/15 00:59:28;;;;;;;;;16.75;13.75;;;;;13.80;78.74;98893.97;5033826;28;8821;-60
2022/09/15 01:01:56;;;;;;;;;18.50;14.50;;;;;13.78;78.89;98898.66;5033671;28;8817;-60
2022/09/15 01:04:24;;;;;;;;;15.50;13.25;;;;;13.74;78.81;98898.16;5032716;28;8817;-60
2022/09/15 01:06:51;;;;;;;;;9.00;8.00;;;;;13.72;79.07;98896.63;5033633;28;8818;-60
2022/09/15 01:09:19;;;;;;;;;16.00;14.25;;;;;13.68;78.95;98889.97;5033510;28;8809;-60
2022/09/15 01:11:47;;;;;;;;;14.50;13.50;;;;;13.65;79.20;98901.84;5033159;28;8833;-61
2022/09/15 01:14:14;;;;;;;;;16.50;12.50;;;;;13.63;78.73;98897.66;5033904;28;8825;-60
2022/09/15 01:16:42;;;;;;;;;15.75;10.75;;;;;13.62;78.96;98895.97;5033517;28;8937;-60
2022/09/15 01:19:10;;;;;;;;;15.25;13.00;;;;;13.59;79.16;98897.13;5033451;28;9488;-60
2022/09/15 01:21:38;;;;;;;;;16.75;14.00;;;;;13.56;79.13;98902.84;5033333;28;8828;-61
2022/09/15 01:24:06;;;;;;;;;14.25;12.75;;;;;13.53;78.85;98900.47;5032669;28;8825;-60
2022/09/15 01:26:33;;;;;;;;;6.00;5.50;;;;;13.52;79.16;98900.66;5033294;28;8882;-60
2022/09/15 01:29:01;;;;;;;;;15.00;11.00;;;;;13.48;79.20;98899.31;5032846;28;8821;-60
2022/09/15 01:31:28;;;;;;;;;18.50;13.50;;;;;13.44;79.13;98897.97;5033166;28;8821;-60
2022/09/15 01:33:55;;;;;;;;;15.75;13.00;;;;;13.39;79.15;98901.16;5032932;28;8821;-60
2022/09/15 01:36:23;;;;;;;;;17.00;15.25;;;;;13.35;79.39;98898.97;5033253;28;8964;-60
2022/09/15 01:38:50;;;;;;;;;13.75;11.25;;;;;13.31;79.30;98895.78;5032891;28;8947;-60
2022/09/15 01:41:18;;;;;;;;;19.00;16.00;;;;;13.27;79.06;98890.91;5032909;28;8836;-60
2022/09/15 01:43:45;;;;;;;;;18.75;15.75;;;;;13.24;79.00;98885.91;5033040;28;8833;-60
2022/09/15 01:46:13;;;;;;;;;16.50;15.25;;;;;13.20;79.48;98884.59;5032945;28;8840;-60
2022/09/15 01:48:41;;;;;;;;;15.00;12.50;;;;;13.17;79.47;98882.22;5032658;28;8830;-60
2022/09/15 01:51:09;;;;;;;;;12.50;10.00;;;;;13.16;79.30;98883.22;5033177;28;8833;-60
2022/09/15 01:53:36;;;;;;;;;15.00;11.50;;;;;13.16;79.42;98885.91;5032697;28;8825;-59
2022/09/15 01:56:04;;;;;;;;;23.00;17.50;;;;;13.16;79.78;98884.06;5032454;28;8829;-60
2022/09/15 01:58:32;;;;;;;;;10.75;10.25;;;;;13.18;79.38;98891.91;5032150;28;8872;-60
2022/09/15 02:01:02;;;;;;;;;16.50;15.00;;;;;13.18;79.86;98886.56;5032865;28;8833;-60
2022/09/15 02:03:30;;;;;;;;;5.00;4.00;;;;;13.17;79.69;98884.88;5032239;28;8828;-61
2022/09/15 02:06:01;;;;;;;;;12.50;9.00;;;;;13.17;79.31;98879.53;5032377;28;9537;-60
2022/09/15 02:08:29;;;;;;;;;12.00;10.00;;;;;13.16;79.47;98888.56;5032169;28;8840;-60
2022/09/15 02:10:56;;;;;;;;;17.50;14.75;;;;;13.15;79.79;98892.25;5031971;28;8848;-60
2022/09/15 02:13:24;;;;;;;;;16.00;14.00;;;;;13.14;79.61;98895.94;5032326;28;8901;-60
2022/09/15 02:15:52;;;;;;;;;15.00;13.75;;;;;13.15;79.72;98892.25;5032348;28;8859;-60
2022/09/15 02:18:19;;;;;;;;;19.50;18.00;;;;;13.12;79.32;98882.72;5015945;28;8840;-60
2022/09/15 02:20:48;;;;;;;;;18.00;15.00;;;;;13.13;79.57;98891.59;5032446;28;8845;-60
2022/09/15 02:23:16;;;;;;;;;15.75;12.00;;;;;13.13;79.75;98886.25;5032236;28;8817;-60
2022/09/15 02:25:50;;;;;;;;;15.75;14.50;;;;;13.13;79.48;98883.56;5032504;28;8821;-60
2022/09/15 02:28:18;;;;;;;;;16.00;15.00;;;;;13.12;79.46;98888.06;5031786;28;8832;-60
2022/09/15 02:30:45;;;;;;;;;18.00;14.50;;;;;13.14;79.62;98893.25;5032677;28;8837;-60
2022/09/15 02:33:13;;;;;;;;;17.75;14.25;;;;;13.16;79.28;98889.41;5032103;28;8893;-60
2022/09/15 02:35:40;;;;;;;;;20.00;19.00;;;;;13.18;78.97;98897.25;5031978;28;8825;-61
2022/09/15 02:38:09;;;;;;;;;12.00;11.50;;;;;13.21;79.19;98899.63;5031587;28;8907;-60
2022/09/15 02:40:36;;;;;;;;;8.50;7.00;;;;;13.21;78.80;98894.28;5031171;28;8853;-60
2022/09/15 02:43:05;;;;;;;;;15.00;15.00;;;;;13.23;79.08;98894.94;5032027;28;8820;-59
2022/09/15 02:45:33;;;;;;;;;16.25;15.00;;;;;13.22;79.45;98898.63;5031760;28;8833;-61
2022/09/15 02:48:00;;;;;;;;;9.00;8.50;;;;;13.22;79.20;98894.09;5031922;28;8821;-59
2022/09/15 02:50:29;;;;;;;;;17.50;15.50;;;;;13.23;79.32;98902.94;5032088;28;9483;-60
2022/09/15 02:52:57;;;;;;;;;15.50;14.00;;;;;13.25;79.07;98893.78;5032219;28;8805;-59
2022/09/15 02:55:26;;;;;;;;;11.50;10.00;;;;;13.27;78.95;98896.25;5031332;28;8841;-59
2022/09/15 02:57:53;;;;;;;;;12.50;12.50;;;;;13.27;79.08;98901.59;5031966;28;8817;-60
2022/09/15 03:00:21;;;;;;;;;11.25;9.75;;;;;13.28;79.20;98892.63;5031466;28;8895;-60
2022/09/15 03:02:50;;;;;;;;;15.75;13.50;;;;;13.27;79.15;98902.47;5031993;28;8884;-59
2022/09/15 03:05:18;;;;;;;;;13.00;12.25;;;;;13.26;79.11;98892.78;5031378;28;8833;-59
2022/09/15 03:07:46;;;;;;;;;9.25;8.50;;;;;13.26;78.84;98897.25;5031309;28;8825;-60
2022/09/15 03:10:13;;;;;;;;;16.00;14.50;;;;;13.25;78.55;98903.63;5031845;28;8829;-60
2022/09/15 03:12:41;;;;;;;;;20.00;15.00;;;;;13.25;78.99;98903.63;5031417;28;8844;-60
2022/09/15 03:15:08;;;;;;;;;12.50;12.00;;;;;13.25;79.16;98903.63;5032032;28;8832;-60
2022/09/15 03:17:36;;;;;;;;;15.25;14.00;;;;;13.25;78.97;98899.13;5033354;28;8895;-60
2022/09/15 03:20:04;;;;;;;;;11.00;9.75;;;;;13.24;79.03;98907.28;5034859;28;8805;-60
2022/09/15 03:22:31;;;;;;;;;12.00;9.50;;;;;13.23;79.01;98903.78;5035306;28;8841;-59
2022/09/15 03:24:59;;;;;;;;;18.25;16.00;;;;;13.24;78.76;98907.28;5034904;28;8913;-60
2022/09/15 03:27:27;;;;;;;;;7.00;6.00;;;;;13.26;78.80;98910.63;5034178;28;9562;-59
2022/09/15 03:29:55;;;;;;;;;13.50;13.00;;;;;13.28;78.88;98905.97;5033955;28;8841;-60
2022/09/15 03:32:23;;;;;;;;;10.00;8.00;;;;;13.31;78.44;98911.00;5033631;28;8821;-60
2022/09/15 03:34:51;;;;;;;;;10.75;8.50;;;;;13.33;78.25;98909.84;5014376;28;8827;-60
2022/09/15 03:37:24;;;;;;;;;12.75;12.00;;;;;13.34;78.34;98913.31;5014455;28;8896;-60
2022/09/15 03:39:52;;;;;;;;;13.50;9.25;;;;;13.35;78.51;98915.03;5033212;28;8825;-60
2022/09/15 03:42:20;;;;;;;;;9.00;6.75;;;;;13.36;78.33;98914.03;5034951;28;8824;-59
2022/09/15 03:44:47;;;;;;;;;20.00;16.00;;;;;13.40;78.81;98915.34;5034304;28;8829;-61
2022/09/15 03:47:15;;;;;;;;;15.75;13.00;;;;;13.43;78.12;98907.81;5034565;28;8813;-60
2022/09/15 03:49:43;;;;;;;;;18.00;15.25;;;;;13.50;78.01;98910.66;5034561;28;8801;-60
2022/09/15 03:52:12;;;;;;;;;15.75;13.50;;;;;13.56;78.32;98910.00;5034867;28;8930;-60
2022/09/15 03:54:40;;;;;;;;;21.50;17.50;;;;;13.61;78.07;98907.69;5033987;28;8809;-60
2022/09/15 03:57:08;;;;;;;;;16.00;15.50;;;;;13.66;77.66;98910.72;5033881;28;8922;-61
2022/09/15 03:59:35;;;;;;;;;10.75;9.50;;;;;13.72;77.33;98902.84;5034134;28;8856;-60
2022/09/15 04:02:03;;;;;;;;;9.25;7.50;;;;;13.78;77.88;98901.31;5034329;28;8917;-60
2022/09/15 04:04:31;;;;;;;;;15.00;13.50;;;;;13.87;77.47;98908.34;5033774;28;8833;-60
2022/09/15 04:06:59;;;;;;;;;12.00;10.00;;;;;13.91;77.08;98905.19;5034164;28;9482;-60
2022/09/15 04:09:26;;;;;;;;;11.25;10.50;;;;;13.96;76.87;98910.84;5033223;28;8829;-60
2022/09/15 04:11:54;;;;;;;;;15.50;15.50;;;;;14.01;76.97;98907.66;5034150;28;8849;-60
2022/09/15 04:14:22;;;;;;;;;19.25;17.75;;;;;14.05;76.60;98899.13;5033674;28;8901;-60
2022/09/15 04:16:49;;;;;;;;;9.75;7.50;;;;;14.07;77.07;98907.84;5033506;28;8829;-60
2022/09/15 04:19:17;;;;;;;;;13.00;12.00;;;;;14.09;77.21;98899.63;5033616;28;8824;-60
2022/09/15 04:21:46;;;;;;;;;18.00;15.75;;;;;14.11;76.77;98903.00;5034009;28;8836;-60
2022/09/15 04:24:13;;;;;;;;;15.00;13.00;;;;;14.12;76.67;98899.31;5032729;28;8821;-61
2022/09/15 04:26:41;;;;;;;;;23.00;20.50;;;;;14.12;77.17;98894.78;5032660;28;8909;-60
2022/09/15 04:29:09;;;;;;;;;20.50;17.50;;;;;14.11;77.67;98908.34;5032229;28;8821;-61
2022/09/15 04:31:37;;;;;;;;;13.25;12.25;;;;;14.09;77.29;98910.34;5032274;28;8825;-60
2022/09/15 04:34:04;;;;;;;;;13.75;12.50;;;;;14.07;77.54;98905.16;5032531;28;8846;-60
2022/09/15 04:36:32;;;;;;;;;17.75;15.00;;;;;14.07;77.72;98907.84;5032919;28;8922;-60
2022/09/15 04:39:00;;;;;;;;;15.50;13.00;;;;;14.06;77.90;98908.84;5033189;28;8845;-60
2022/09/15 04:41:28;;;;;;;;;18.25;15.50;;;;;14.06;77.73;98906.19;5033511;28;8853;-60
2022/09/15 04:43:55;;;;;;;;;20.75;18.25;;;;;14.07;77.77;98910.53;5031901;28;8829;-60
2022/09/15 04:46:23;;;;;;;;;13.75;11.25;;;;;14.08;77.85;98917.53;5032540;28;8826;-60
2022/09/15 04:48:50;;;;;;;;;13.50;13.00;;;;;14.08;77.68;98916.69;5032810;28;8835;-60
2022/09/15 04:51:18;;;;;;;;;24.50;18.25;;;;;14.09;77.42;98910.34;5033557;28;8917;-59
2022/09/15 04:53:46;;;;;;;;;15.25;14.00;;;;;14.10;77.58;98912.84;5018916;28;8821;-59
2022/09/15 04:56:13;;;;;;;;;13.75;12.75;;;;;14.10;77.58;98907.50;5033139;28;8825;-60
2022/09/15 04:58:41;;;;;;;;;18.25;18.25;;;;;14.12;77.48;98916.19;5033252;28;9461;-60
2022/09/15 05:01:09;;;;;;;;;14.00;12.75;;;;;14.13;77.64;98907.16;5031939;28;8856;-60
2022/09/15 05:03:37;;;;;;;;;12.50;12.00;;;;;14.15;77.26;98912.34;5032393;28;8817;-60
2022/09/15 05:06:05;;;;;;;;;19.75;18.25;;;;;14.17;77.60;98913.84;5032393;28;9571;-60
2022/09/15 05:08:32;;;;;;;;;16.25;15.50;;;;;14.19;76.98;98911.03;5031148;28;9599;-59
2022/09/15 05:11:00;;;;;;;;;15.50;14.00;;;;;14.20;77.56;98918.06;5031669;28;8929;-59
2022/09/15 05:13:28;;;;;;;;;18.75;15.00;;;;;14.21;77.73;98909.03;5030410;28;8929;-61
2022/09/15 05:15:55;;;;;;;;;9.00;9.00;;;;;14.21;77.04;98912.50;5028259;28;8849;-62
2022/09/15 05:18:24;;;;;;;;;15.00;14.00;;;;;14.22;77.77;98913.38;5028642;28;8837;-59
2022/09/15 05:20:51;;;;;;;;;18.75;16.00;;;;;14.22;77.15;98911.53;5029220;28;8829;-60
2022/09/15 05:23:19;;;;;;;;;17.00;15.00;;;;;14.23;77.34;98915.88;5028564;28;8860;-60
2022/09/15 05:25:47;;;;;;;;;17.00;14.00;;;;;14.26;77.44;98920.06;5029374;28;9297;-59
2022/09/15 05:28:14;;;;;;;;;18.00;16.50;;;;;14.26;77.59;98920.06;5028402;28;8833;-59
2022/09/15 05:30:42;;;;;;;;;21.00;19.75;;;;;14.27;77.23;98913.69;5029224;28;8821;-59
2022/09/15 05:33:11;;;;;;;;;19.50;18.25;;;;;14.26;77.36;98917.41;5029515;28;8853;-59
2022/09/15 05:35:38;;;;;;;;;22.50;21.50;;;;;14.28;77.13;98915.38;5028589;28;8890;-60
2022/09/15 05:38:06;;;;;;;;;10.00;9.50;;;;;14.28;77.42;98924.22;5029327;28;8859;-61
2022/09/15 05:40:33;;;;;;;;;15.75;15.00;;;;;14.29;77.48;98917.88;5028537;28;8921;-60
2022/09/15 05:43:02;;;;;;;;;19.25;19.00;;;;;14.31;77.23;98925.72;5028048;28;8841;-59
2022/09/15 05:45:29;;;;;;;;;23.50;21.00;;;;;14.34;77.58;98928.09;5028251;28;8905;-61
2022/09/15 05:47:57;;;;;;;;;13.50;10.50;;;;;14.35;77.12;98927.06;5028365;28;8837;-59
2022/09/15 05:50:24;;;;;;;;;13.00;11.25;;;;;14.37;76.99;98935.78;5028389;28;8837;-59
2022/09/15 05:52:52;;;;;;;;;20.00;18.50;;;;;14.43;77.06;98940.44;5028964;28;8832;-59
2022/09/15 05:55:21;;;;;;;;;16.25;14.75;;;;;14.44;77.01;98929.56;5030586;28;8832;-61
2022/09/15 05:57:48;;;;;;;;;8.00;7.00;;;;;14.48;77.05;98930.06;5029661;28;8860;-60
2022/09/15 06:00:16;;;;;;;;;15.00;15.00;;;;;14.51;76.68;98935.88;5028225;28;8845;-60
2022/09/15 06:02:45;;;;;;;;;20.50;18.00;;;;;14.54;77.19;98937.41;5027503;28;8921;-59
2022/09/15 06:05:13;;;;;;;;;15.25;13.00;;;;;14.57;76.98;98940.56;5027437;28;8840;-62
2022/09/15 06:07:41;;;;;;;;;16.50;13.75;;;;;14.62;76.81;98940.06;5027890;28;8909;-60
2022/09/15 06:10:09;;;;;;;;;17.00;16.75;;;;;14.64;76.70;98932.69;5026768;28;8837;-59
2022/09/15 06:12:36;;;;;;;;;15.25;15.25;;;;;14.65;76.30;98934.38;5027178;28;8845;-61
2022/09/15 06:15:04;;;;;;;;;16.75;13.75;;;;;14.71;76.57;98939.03;5027528;28;8817;-60
2022/09/15 06:17:31;;;;;;;;;18.50;14.25;;;;;14.75;76.52;98945.72;5027814;28;8909;-60
2022/09/15 06:20:00;;;;;;;;;18.33;15.33;;;;;14.79;76.37;98941.69;5029040;28;8924;-61
2022/09/15 06:22:28;;;;;;;;;16.50;15.75;;;;;14.83;75.88;98940.31;5028929;28;8845;-59
2022/09/15 06:24:55;;;;;;;;;15.50;12.75;;;;;14.86;76.19;98942.69;5028138;28;8833;-61
2022/09/15 06:27:23;;;;;;;;;18.50;16.00;;;;;14.90;76.33;98943.97;5028845;28;8833;-60
2022/09/15 06:29:51;;;;;;;;;18.00;15.50;;;;;14.93;76.70;98955.19;5029376;28;8837;-60
2022/09/15 06:32:19;;;;;;;;;11.50;9.75;;;;;14.96;75.77;98949.47;5029596;28;8829;-60
2022/09/15 06:34:46;;;;;;;;;12.25;9.25;;;;;15.00;76.03;98966.06;5029799;28;8825;-59
2022/09/15 06:37:14;;;;;;;;;12.50;9.50;;;;;15.06;75.65;98968.03;5028362;28;8845;-59
2022/09/15 06:39:42;;;;;;;;;15.50;15.00;;;;;15.10;75.80;98966.69;5029515;28;9594;-59
2022/09/15 06:42:09;;;;;;;;;17.50;16.00;;;;;15.12;76.20;98973.56;5030378;28;8864;-61
2022/09/15 06:44:40;;;;;;;;;17.75;16.50;;;;;15.14;75.53;98968.84;5029709;28;8905;-60
2022/09/15 06:47:07;;;;;;;;;17.00;15.00;;;;;15.16;75.89;98969.50;5029358;28;8905;-59
2022/09/15 06:49:35;;;;;;;;;11.50;9.75;;;;;15.18;76.06;98974.72;5030013;28;8897;-60
2022/09/15 06:52:03;;;;;;;;;10.00;9.25;;;;;15.18;75.73;98980.91;5027874;28;8861;-60
2022/09/15 06:54:31;;;;;;;;;21.00;18.00;;;;;15.21;75.42;98985.09;5029433;28;8829;-59
2022/09/15 06:56:59;;;;;;;;;16.50;15.50;;;;;15.24;75.61;98982.06;5029710;28;8841;-60
2022/09/15 06:59:27;;;;;;;;;13.00;13.00;;;;;15.29;75.64;98979.66;5029601;28;8829;-60
2022/09/15 07:01:54;;;;;;;;;13.00;12.00;;;;;15.34;75.79;98980.88;5029984;28;8837;-60
2022/09/15 07:04:22;;;;;;;;;19.25;15.50;;;;;15.38;75.62;98982.19;5028586;28;8925;-59
2022/09/15 07:06:50;;;;;;;;;13.00;12.25;;;;;15.43;75.23;98989.69;5028916;28;9570;-60
2022/09/15 07:09:18;;;;;;;;;14.00;12.25;;;;;15.45;74.84;98993.88;5029630;28;8833;-60
2022/09/15 07:11:46;;;;;;;;;15.25;12.75;;;;;15.46;74.95;98994.72;5029749;28;8841;-60
2022/09/15 07:14:13;;;;;;;;;18.50;17.25;;;;;15.46;74.97;98995.56;5029430;28;8837;-60
2022/09/15 07:16:41;;;;;;;;;15.00;13.75;;;;;15.47;75.47;99004.44;5029465;28;8837;-61
2022/09/15 07:19:09;;;;;;;;;18.50;16.50;;;;;15.46;75.16;99005.47;5029898;28;8844;-59
2022/09/15 07:21:36;;;;;;;;;14.00;12.25;;;;;15.47;75.07;99001.75;5030057;28;8834;-59
2022/09/15 07:24:04;;;;;;;;;13.50;13.50;;;;;15.49;75.12;99005.91;5030597;28;8913;-60
2022/09/15 07:26:34;;;;;;;;;19.25;16.50;;;;;15.53;75.34;99015.31;5029712;28;8832;-61
2022/09/15 07:29:01;;;;;;;;;16.50;15.50;;;;;15.59;75.38;99011.06;5030641;28;8828;-60
2022/09/15 07:31:29;;;;;;;;;20.00;14.25;;;;;15.65;75.59;99015.75;5029366;28;8825;-60
2022/09/15 07:33:57;;;;;;;;;11.25;10.75;;;;;15.73;74.89;99013.00;5029901;28;8855;-60
2022/09/15 07:36:25;;;;;;;;;17.50;15.00;;;;;15.80;74.79;99008.59;5029775;28;8845;-60
2022/09/15 07:38:53;;;;;;;;;12.00;11.25;;;;;15.87;75.14;99014.94;5029310;28;8941;-59
2022/09/15 07:41:20;;;;;;;;;16.50;15.00;;;;;15.93;75.05;99014.22;5029174;28;8837;-60
2022/09/15 07:43:48;;;;;;;;;15.75;15.50;;;;;15.98;74.58;99011.81;5029186;28;8865;-60
2022/09/15 07:46:16;;;;;;;;;13.50;12.00;;;;;16.00;74.66;99016.00;5029026;28;8837;-59
2022/09/15 07:48:43;;;;;;;;;15.20;12.60;;;;;16.01;74.29;99017.69;5028891;28;8860;-59
2022/09/15 07:51:11;;;;;;;;;15.25;12.25;;;;;16.00;74.14;99023.25;5028734;28;8844;-60
2022/09/15 07:53:39;;;;;;;;;17.80;14.60;;;;;16.00;74.46;99029.44;5029075;28;9643;-59
2022/09/15 07:56:06;;;;;;;;;5.75;4.00;;;;;16.03;74.53;99030.94;5029606;28;8825;-60
2022/09/15 07:58:34;;;;;;;;;12.75;12.75;;;;;16.07;74.40;99032.25;5029153;28;8837;-60
2022/09/15 08:01:02;;;;;;;;;14.00;12.50;;;;;16.11;74.59;99038.94;5028729;28;8917;-60
2022/09/15 08:03:30;;;;;;;;;15.50;15.00;;;;;16.15;74.38;99038.41;5029859;28;8947;-60
2022/09/15 08:05:58;;;;;;;;;21.00;19.00;;;;;16.18;74.16;99030.81;5032385;28;8913;-60
2022/09/15 08:08:25;;;;;;;;;17.50;16.00;;;;;16.22;74.38;99025.91;5031165;28;9517;-60
2022/09/15 08:10:54;;;;;;;;;20.00;17.00;;;;;16.28;74.00;99038.63;5029642;28;8841;-59
2022/09/15 08:13:21;;;;;;;;;16.00;16.00;;;;;16.36;73.70;99039.41;5029606;28;8845;-59
2022/09/15 08:15:49;;;;;;;;;12.75;9.75;;;;;16.45;73.42;99033.00;5029631;28;8841;-60
2022/09/15 08:18:17;;;;;;;;;18.25;15.25;;;;;16.60;73.51;99036.53;5028970;28;8841;-61
2022/09/15 08:20:45;;;;;;;;;15.80;13.40;;;;;16.76;73.07;99036.38;5030021;28;8901;-60
2022/09/15 08:23:13;;;;;;;;;15.60;14.60;;;;;16.95;72.47;99033.16;5030795;28;8875;-59
2022/09/15 08:25:41;;;;;;;;;12.00;10.40;;;;;17.13;72.59;99036.31;5030462;28;8816;-60
2022/09/15 08:28:09;;;;;;;;;17.00;15.20;;;;;17.26;72.32;99031.13;5030608;28;8831;-59
2022/09/15 08:30:37;;;;;;;;;13.20;12.20;;;;;17.34;71.70;99041.81;5030653;28;8960;-59
2022/09/15 08:33:05;;;;;;;;;17.80;13.20;;;;;17.39;72.25;99054.72;5031413;28;8853;-59
2022/09/15 08:35:35;;;;;;;;;13.80;12.60;;;;;17.41;71.59;99042.75;5031411;28;8967;-60
2022/09/15 08:38:03;;;;;;;;;8.60;6.00;;;;;17.46;72.08;99043.00;5031244;28;8897;-60
2022/09/15 08:40:31;;;;;;;;;10.00;9.60;;;;;17.47;71.70;99047.38;5030412;28;8849;-59
2022/09/15 08:42:58;;;;;;;;;13.40;13.00;;;;;17.46;71.90;99055.66;5030205;28;9572;-59
2022/09/15 08:45:26;;;;;;;;;13.00;12.00;;;;;17.41;71.71;99053.53;5030256;28;8864;-59
2022/09/15 08:47:57;;;;;;;;;11.20;10.40;;;;;17.39;72.38;99055.56;5030346;28;8821;-59
2022/09/15 08:50:26;;;;;;;;;14.60;12.80;;;;;17.40;72.04;99051.00;5030945;28;8821;-59
2022/09/15 08:52:54;;;;;;;;;13.00;13.00;;;;;17.44;72.12;99063.06;5031611;28;9549;-60
2022/09/15 08:55:22;;;;;;;;;12.40;10.80;;;;;17.46;72.37;99061.88;5031975;28;8845;-60
2022/09/15 08:57:50;;;;;;;;;9.80;7.80;;;;;17.44;72.27;99069.28;5032262;28;8829;-59
2022/09/15 09:00:19;;;;;;;;;13.00;9.80;;;;;17.39;72.10;99069.00;5031703;28;8929;-59
2022/09/15 09:02:46;;;;;;;;;7.60;7.40;;;;;17.37;72.43;99065.69;5031775;28;8852;-59
2022/09/15 09:05:14;;;;;;;;;7.00;7.00;;;;;17.40;72.23;99064.47;5029961;28;8981;-59
2022/09/15 09:07:42;;;;;;;;;9.60;9.40;;;;;17.40;72.33;99065.28;5029994;28;8821;-60
2022/09/15 09:10:09;;;;;;;;;8.60;7.00;;;;;17.40;72.15;99065.28;5028010;28;9553;-59
2022/09/15 09:12:37;;;;;;;;;4.00;4.00;;;;;17.47;72.07;99071.59;5028146;28;8837;-60
2022/09/15 09:15:05;;;;;;;;;9.00;7.40;;;;;17.68;71.72;99079.75;5029433;28;8844;-60
2022/09/15 09:17:33;;;;;;;;;6.40;6.00;;;;;17.83;71.52;99068.97;5030582;28;8905;-60
2022/09/15 09:20:00;;;;;;;;;9.40;6.40;;;;;17.94;70.97;99072.00;5031488;28;8841;-59
2022/09/15 09:22:29;;;;;;;;;3.00;3.00;;;;;18.04;71.23;99069.84;5031269;28;8829;-59
2022/09/15 09:24:57;;;;;;;;;3.00;3.00;;;;;18.20;70.46;99066.91;5030087;28;8829;-60
2022/09/15 09:27:25;;;;;;;;;3.20;3.00;;;;;18.36;69.86;99071.25;5031412;28;8829;-60
2022/09/15 09:29:52;;;;;;;;;1.80;1.80;;;;;18.45;69.79;99067.41;5031360;28;8832;-60
2022/09/15 09:32:20;;;;;;;;;3.20;3.20;;;;;18.54;69.82;99074.31;5031243;28;8845;-60
2022/09/15 09:34:49;;;;;;;;;1.40;1.40;;;;;18.57;69.77;99079.31;5029987;28;8928;-60
2022/09/15 09:37:17;;;;;;;;;3.60;3.60;;;;;18.61;69.35;99075.22;5028982;28;8829;-60
2022/09/15 09:39:45;;;;;;;;;1.80;1.00;;;;;18.63;69.97;99084.78;5030671;28;8917;-60
2022/09/15 09:42:13;;;;;;;;;3.00;1.00;;;;;18.66;69.79;99078.19;5031099;28;8837;-59
2022/09/15 09:44:41;;;;;;;;;3.00;3.00;;;;;18.63;69.94;99078.53;5028797;28;8849;-59
2022/09/15 09:47:08;;;;;;;;;3.00;1.40;;;;;18.59;69.88;99080.78;5028270;28;8824;-59
2022/09/15 09:49:36;;;;;;;;;3.00;3.00;;;;;18.57;69.57;99084.72;5027942;28;8905;-60
2022/09/15 09:52:04;;;;;;;;;0.20;0.00;;;;;18.57;69.37;99090.94;5029468;28;8915;-60
2022/09/15 09:54:31;;;;;;;;;1.00;1.00;;;;;18.65;69.27;99090.81;5030065;28;8837;-59
2022/09/15 09:56:59;;;;;;;;;1.00;1.00;;;;;18.73;68.98;99090.69;5029992;28;8893;-60
2022/09/15 09:59:27;;;;;;;;;2.20;2.20;;;;;18.71;69.30;99091.91;5030366;28;8864;-60
2022/09/15 10:01:55;;;;;;;;;4.00;2.20;;;;;18.68;69.29;99086.91;5029578;28;8829;-60
2022/09/15 10:04:22;;;;;;;;;0.20;0.20;;;;;18.72;69.18;99082.78;5028039;28;8916;-60
2022/09/15 10:06:50;;;;;;;;;0.60;0.60;;;;;18.90;68.48;99080.44;5029120;28;8857;-60
2022/09/15 10:09:18;;;;;;;;;1.00;1.00;;;;;19.13;68.22;99075.63;5028689;28;8832;-59
2022/09/15 10:11:46;;;;;;;;;1.00;1.00;;;;;19.50;67.16;99075.28;5024125;28;8861;-59
2022/09/15 10:14:14;;;;;;;;;1.00;1.00;;;;;19.96;65.88;99079.03;5027385;28;9521;-60
2022/09/15 10:16:41;;;;;;;;;0.00;0.00;;;;;20.25;65.42;99073.31;5027258;28;9531;-61
2022/09/15 10:19:09;;;;;;;;;0.80;0.00;;;;;20.30;65.29;99079.78;5027919;28;8908;-60
2022/09/15 10:21:36;;;;;;;;;0.80;0.80;;;;;20.31;65.00;99073.31;5028905;28;8913;-64
2022/09/15 10:24:04;;;;;;;;;0.40;0.40;;;;;20.27;65.13;99072.09;5028855;28;8849;-60
2022/09/15 10:26:32;;;;;;;;;0.00;0.00;;;;;20.23;65.25;99062.69;5028501;28;9513;-61
2022/09/15 10:29:00;;;;;;;;;0.00;0.00;;;;;20.09;65.29;99068.28;5028517;28;9586;-60
2022/09/15 10:31:28;;;;;;;;;1.00;0.00;;;;;20.01;65.35;99061.16;5028147;28;8832;-60
2022/09/15 10:33:56;;;;;;;;;0.40;0.40;;;;;19.98;65.56;99064.28;5027990;28;8893;-60
2022/09/15 10:36:23;;;;;;;;;1.00;1.00;;;;;19.89;65.62;99073.56;5027894;28;8825;-61
2022/09/15 10:38:51;;;;;;;;;0.00;0.00;;;;;19.90;65.51;99069.84;5027547;28;8845;-60
2022/09/15 10:41:19;;;;;;;;;1.00;1.00;;;;;19.99;65.34;99068.63;5027663;28;8906;-60
2022/09/15 10:43:47;;;;;;;;;0.40;0.40;;;;;20.07;64.84;99071.19;5027870;28;8920;-61
2022/09/15 10:46:14;;;;;;;;;0.00;0.00;;;;;20.02;65.10;99068.22;5029175;28;8847;-60
2022/09/15 10:48:42;;;;;;;;;0.40;0.00;;;;;19.99;65.22;99073.19;5030313;28;8832;-61
2022/09/15 10:51:11;;;;;;;;;0.40;0.20;;;;;19.94;65.30;99073.00;5028280;28;8833;-60
2022/09/15 10:53:38;;;;;;;;;0.40;0.40;;;;;19.78;65.09;99074.16;5030068;28;8864;-60
2022/09/15 10:56:06;;;;;;;;;0.00;0.00;;;;;19.60;65.24;99079.28;5029987;28;8857;-60
2022/09/15 10:58:33;;;;;;;;;1.00;1.00;;;;;19.41;65.83;99080.00;5028277;28;8825;-61
2022/09/15 11:01:01;;;;;;;;;0.40;0.00;;;;;19.22;66.80;99078.03;5027646;28;8845;-60
2022/09/15 11:03:30;;;;;;;;;0.00;0.00;;;;;19.04;67.13;99077.63;5027789;28;8838;-60
2022/09/15 11:05:57;;;;;;;;;0.80;0.80;;;;;18.85;67.46;99089.13;5026779;28;8828;-60
2022/09/15 11:08:25;;;;;;;;;0.00;0.00;;;;;18.67;67.31;99091.44;5028297;28;8844;-59
2022/09/15 11:10:52;;;;;;;;;0.00;0.00;;;;;18.46;67.58;99088.78;5025895;28;8929;-60
2022/09/15 11:13:20;;;;;;;;;1.00;1.00;;;;;18.28;67.98;99088.34;5025289;28;8829;-59
2022/09/15 11:15:48;;;;;;;;;0.00;0.00;;;;;18.12;68.23;99102.06;5025347;28;9506;-60
2022/09/15 11:18:16;;;;;;;;;1.00;0.00;;;;;17.96;69.03;99096.91;5025051;28;8917;-60
2022/09/15 11:20:44;;;;;;;;;0.00;0.00;;;;;17.80;69.23;99102.50;5024139;28;8853;-60
2022/09/15 11:23:12;;;;;;;;;0.80;0.80;;;;;17.65;69.59;99108.91;5024979;28;8837;-60
2022/09/15 11:25:39;;;;;;;;;0.60;0.60;;;;;17.43;69.48;99123.31;5024519;28;8916;-60
2022/09/15 11:28:07;;;;;;;;;2.60;1.00;;;;;17.12;70.13;99146.81;5024547;28;8851;-60
2022/09/15 11:30:35;;;;;;;;;1.00;1.00;;;;;16.85;70.82;99148.25;5024549;28;8844;-60